sensor_id;sensor_type;location;lat;lon;timestamp;pressure;altitude;pressure_sealevel;temperature;humidity
9905;BME280;4991;43.566;27.820;2023-04-16T00:01:38;98618.28;;;11.41;100.00
9905;BME280;4991;43.566;27.820;2023-04-16T00:04:03;98621.13;;;11.36;100.00
9905;BME280;4991;43.566;27.820;2023-04-16T00:06:29;98618.25;;;11.32;100.00
9905;BME280;4991;43.566;27.820;2023-04-16T00:08:56;98611.00;;;11.28;100.00
9905;BME280;4991;43.566;27.820;2023-04-16T00:11:21;98605.22;;;11.29;100.00
9905;BME280;4991;43.566;27.820;2023-04-16T00:13:47;98607.75;;;11.26;100.00
9905;BME280;4991;43.566;27.820;2023-04-16T00:16:12;98609.06;;;11.28;100.00
9905;BME280;4991;43.566;27.820;2023-04-16T00:18:38;98604.44;;;11.29;100.00
9905;BME280;4991;43.566;27.820;2023-04-16T00:21:06;98609.88;;;11.29;100.00
9905;BME280;4991;43.566;27.820;2023-04-16T00:23:32;98609.56;;;11.30;100.00
9905;BME280;4991;43.566;27.820;2023-04-16T00:25:57;98612.81;;;11.32;100.00
9905;BME280;4991;43.566;27.820;2023-04-16T00:28:25;98608.44;;;11.31;100.00
9905;BME280;4991;43.566;27.820;2023-04-16T00:30:51;98619.47;;;11.26;100.00
9905;BME280;4991;43.566;27.820;2023-04-16T00:33:17;98616.63;;;11.31;100.00
9905;BME280;4991;43.566;27.820;2023-04-16T00:35:46;98615.94;;;11.26;100.00
9905;BME280;4991;43.566;27.820;2023-04-16T00:38:13;98617.38;;;11.23;100.00
9905;BME280;4991;43.566;27.820;2023-04-16T00:40:38;98623.22;;;11.30;100.00
9905;BME280;4991;43.566;27.820;2023-04-16T00:43:04;98623.66;;;11.24;100.00
9905;BME280;4991;43.566;27.820;2023-04-16T00:45:30;98619.47;;;11.26;100.00
9905;BME280;4991;43.566;27.820;2023-04-16T00:47:57;98625.75;;;11.27;100.00
9905;BME280;4991;43.566;27.820;2023-04-16T00:50:23;98620.28;;;11.27;100.00
9905;BME280;4991;43.566;27.820;2023-04-16T00:52:49;98609.56;;;11.30;100.00
9905;BME280;4991;43.566;27.820;2023-04-16T00:55:15;98615.16;;;11.25;100.00
9905;BME280;4991;43.566;27.820;2023-04-16T00:57:43;98611.50;;;11.30;100.00
9905;BME280;4991;43.566;27.820;2023-04-16T01:00:09;98615.47;;;11.24;100.00
9905;BME280;4991;43.566;27.820;2023-04-16T01:02:35;98609.38;;;11.27;100.00
9905;BME280;4991;43.566;27.820;2023-04-16T01:05:02;98613.66;;;11.19;100.00
9905;BME280;4991;43.566;27.820;2023-04-16T01:07:28;98607.91;;;11.21;100.00
9905;BME280;4991;43.566;27.820;2023-04-16T01:09:54;98610.63;;;11.21;100.00
9905;BME280;4991;43.566;27.820;2023-04-16T01:12:20;98604.88;;;11.22;100.00
9905;BME280;4991;43.566;27.820;2023-04-16T01:14:46;98606.97;;;11.25;100.00
9905;BME280;4991;43.566;27.820;2023-04-16T01:17:11;98609.56;;;11.30;100.00
9905;BME280;4991;43.566;27.820;2023-04-16T01:19:37;98608.44;;;11.31;100.00
9905;BME280;4991;43.566;27.820;2023-04-16T01:22:03;98611.03;;;11.36;100.00
9905;BME280;4991;43.566;27.820;2023-04-16T01:24:30;98604.63;;;11.32;100.00
9905;BME280;4991;43.566;27.820;2023-04-16T01:26:59;98614.03;;;11.26;100.00
9905;BME280;4991;43.566;27.820;2023-04-16T01:29:25;98604.31;;;11.34;100.00
9905;BME280;4991;43.566;27.820;2023-04-16T01:31:51;98614.75;;;11.40;100.00
9905;BME280;4991;43.566;27.820;2023-04-16T01:34:17;98600.00;;;11.41;100.00
9905;BME280;4991;43.566;27.820;2023-04-16T01:36:43;98602.59;;;11.46;100.00
9905;BME280;4991;43.566;27.820;2023-04-16T01:39:08;98600.50;;;11.43;100.00
9905;BME280;4991;43.566;27.820;2023-04-16T01:41:39;98595.72;;;11.49;100.00
9905;BME280;4991;43.566;27.820;2023-04-16T01:44:05;98595.88;;;11.52;100.00
9905;BME280;4991;43.566;27.820;2023-04-16T01:46:32;98589.81;;;11.55;100.00
9905;BME280;4991;43.566;27.820;2023-04-16T01:48:59;98596.22;;;11.59;100.00
9905;BME280;4991;43.566;27.820;2023-04-16T01:51:26;98596.50;;;11.49;100.00
9905;BME280;4991;43.566;27.820;2023-04-16T01:53:54;98598.44;;;11.49;100.00
9905;BME280;4991;43.566;27.820;2023-04-16T01:56:22;98585.72;;;11.44;100.00
9905;BME280;4991;43.566;27.820;2023-04-16T01:58:48;98576.91;;;11.47;100.00
9905;BME280;4991;43.566;27.820;2023-04-16T02:01:14;98583.47;;;11.38;100.00
9905;BME280;4991;43.566;27.820;2023-04-16T02:03:40;98573.31;;;11.30;100.00
9905;BME280;4991;43.566;27.820;2023-04-16T02:06:06;98572.69;;;11.33;100.00
9905;BME280;4991;43.566;27.820;2023-04-16T02:08:32;98571.41;;;11.30;100.00
9905;BME280;4991;43.566;27.820;2023-04-16T02:11:00;98566.28;;;11.29;100.00
9905;BME280;4991;43.566;27.820;2023-04-16T02:13:25;98567.00;;;11.21;100.00
9905;BME280;4991;43.566;27.820;2023-04-16T02:15:51;98571.81;;;11.15;100.00
9905;BME280;4991;43.566;27.820;2023-04-16T02:18:17;98559.97;;;11.20;100.00
9905;BME280;4991;43.566;27.820;2023-04-16T02:20:44;98561.28;;;11.22;100.00
9905;BME280;4991;43.566;27.820;2023-04-16T02:23:11;98561.03;;;11.10;100.00
9905;BME280;4991;43.566;27.820;2023-04-16T02:25:44;98556.69;;;11.09;100.00
9905;BME280;4991;43.566;27.820;2023-04-16T02:28:13;98564.09;;;11.09;100.00
9905;BME280;4991;43.566;27.820;2023-04-16T02:30:39;98562.47;;;11.08;100.00
9905;BME280;4991;43.566;27.820;2023-04-16T02:33:07;98563.28;;;11.08;100.00
9905;BME280;4991;43.566;27.820;2023-04-16T02:35:34;98561.19;;;11.05;100.00
9905;BME280;4991;43.566;27.820;2023-04-16T02:38:00;98560.69;;;11.03;100.00
9905;BME280;4991;43.566;27.820;2023-04-16T02:40:26;98564.09;;;11.09;100.00
9905;BME280;4991;43.566;27.820;2023-04-16T02:42:53;98551.09;;;11.14;100.00
9905;BME280;4991;43.566;27.820;2023-04-16T02:45:19;98561.84;;;11.11;100.00
9905;BME280;4991;43.566;27.820;2023-04-16T02:47:46;98563.78;;;11.10;100.00
9905;BME280;4991;43.566;27.820;2023-04-16T02:50:12;98563.94;;;11.14;100.00
9905;BME280;4991;43.566;27.820;2023-04-16T02:52:37;98563.81;;;11.19;100.00
9905;BME280;4991;43.566;27.820;2023-04-16T02:55:04;98576.63;;;11.18;100.00
9905;BME280;4991;43.566;27.820;2023-04-16T02:57:30;98559.19;;;11.28;100.00
9905;BME280;4991;43.566;27.820;2023-04-16T02:59:56;98566.09;;;11.25;100.00
9905;BME280;4991;43.566;27.820;2023-04-16T03:02:21;98567.88;;;11.30;100.00
9905;BME280;4991;43.566;27.820;2023-04-16T03:04:47;98570.09;;;11.28;100.00
9905;BME280;4991;43.566;27.820;2023-04-16T03:07:12;98573.63;;;11.28;100.00
9905;BME280;4991;43.566;27.820;2023-04-16T03:09:39;98572.19;;;11.31;100.00
9905;BME280;4991;43.566;27.820;2023-04-16T03:12:05;98577.69;;;11.39;100.00
9905;BME280;4991;43.566;27.820;2023-04-16T03:14:30;98578.19;;;11.41;100.00
9905;BME280;4991;43.566;27.820;2023-04-16T03:16:57;98577.56;;;11.44;100.00
9905;BME280;4991;43.566;27.820;2023-04-16T03:19:22;98577.56;;;11.44;100.00
9905;BME280;4991;43.566;27.820;2023-04-16T03:21:48;98572.78;;;11.50;100.00
9905;BME280;4991;43.566;27.820;2023-04-16T03:24:13;98579.53;;;11.61;100.00
9905;BME280;4991;43.566;27.820;2023-04-16T03:26:39;98573.34;;;11.69;100.00
9905;BME280;4991;43.566;27.820;2023-04-16T03:29:04;98576.41;;;11.76;100.00
9905;BME280;4991;43.566;27.820;2023-04-16T03:31:30;98577.72;;;11.79;100.00
9905;BME280;4991;43.566;27.820;2023-04-16T03:33:56;98583.66;;;11.81;100.00
9905;BME280;4991;43.566;27.820;2023-04-16T03:36:21;98580.78;;;11.94;100.00
9905;BME280;4991;43.566;27.820;2023-04-16T03:38:48;98579.06;;;11.98;100.00
9905;BME280;4991;43.566;27.820;2023-04-16T03:41:13;98581.47;;;12.00;100.00
9905;BME280;4991;43.566;27.820;2023-04-16T03:43:39;98581.78;;;11.98;100.00
9905;BME280;4991;43.566;27.820;2023-04-16T03:46:05;98586.75;;;11.96;100.00
9905;BME280;4991;43.566;27.820;2023-04-16T03:48:31;98589.78;;;11.95;100.00
9905;BME280;4991;43.566;27.820;2023-04-16T03:50:56;98584.66;;;11.93;100.00
9905;BME280;4991;43.566;27.820;2023-04-16T03:53:22;98588.66;;;11.96;100.00
9905;BME280;4991;43.566;27.820;2023-04-16T03:55:51;98593.19;;;12.00;100.00
9905;BME280;4991;43.566;27.820;2023-04-16T03:58:17;98592.06;;;12.01;100.00
9905;BME280;4991;43.566;27.820;2023-04-16T04:00:43;98599.28;;;12.06;100.00
9905;BME280;4991;43.566;27.820;2023-04-16T04:03:09;98599.94;;;12.11;100.00
9905;BME280;4991;43.566;27.820;2023-04-16T04:05:37;98588.56;;;12.18;100.00
9905;BME280;4991;43.566;27.820;2023-04-16T04:08:03;98597.91;;;12.25;100.00
9905;BME280;4991;43.566;27.820;2023-04-16T04:10:33;98595.16;;;12.34;100.00
9905;BME280;4991;43.566;27.820;2023-04-16T04:13:00;98595.81;;;12.48;100.00
9905;BME280;4991;43.566;27.820;2023-04-16T04:15:25;98594.38;;;12.42;100.00
9905;BME280;4991;43.566;27.820;2023-04-16T04:17:51;98590.66;;;12.38;100.00
9905;BME280;4991;43.566;27.820;2023-04-16T04:20:17;98582.66;;;12.50;100.00
9905;BME280;4991;43.566;27.820;2023-04-16T04:22:42;98599.03;;;12.58;100.00
9905;BME280;4991;43.566;27.820;2023-04-16T04:25:09;98602.56;;;12.67;100.00
9905;BME280;4991;43.566;27.820;2023-04-16T04:27:35;98598.53;;;12.82;100.00
9905;BME280;4991;43.566;27.820;2023-04-16T04:30:01;98599.03;;;12.84;100.00
9905;BME280;4991;43.566;27.820;2023-04-16T04:32:26;98596.94;;;12.72;100.00
9905;BME280;4991;43.566;27.820;2023-04-16T04:34:52;98600.47;;;12.81;100.00
9905;BME280;4991;43.566;27.820;2023-04-16T04:37:18;98601.59;;;12.80;100.00
9905;BME280;4991;43.566;27.820;2023-04-16T04:39:43;98610.28;;;12.74;100.00
9905;BME280;4991;43.566;27.820;2023-04-16T04:42:09;98612.53;;;12.89;100.00
9905;BME280;4991;43.566;27.820;2023-04-16T04:44:34;98613.47;;;13.10;100.00
9905;BME280;4991;43.566;27.820;2023-04-16T04:47:00;98611.03;;;13.26;100.00
9905;BME280;4991;43.566;27.820;2023-04-16T04:49:26;98617.31;;;13.35;100.00
9905;BME280;4991;43.566;27.820;2023-04-16T04:51:51;98601.50;;;13.40;100.00
9905;BME280;4991;43.566;27.820;2023-04-16T04:54:19;98613.41;;;13.44;100.00
9905;BME280;4991;43.566;27.820;2023-04-16T04:56:45;98613.75;;;13.34;100.00
9905;BME280;4991;43.566;27.820;2023-04-16T04:59:11;98616.31;;;13.39;100.00
9905;BME280;4991;43.566;27.820;2023-04-16T05:01:37;98608.72;;;13.45;100.00
9905;BME280;4991;43.566;27.820;2023-04-16T05:04:03;98615.28;;;13.61;100.00
9905;BME280;4991;43.566;27.820;2023-04-16T05:06:29;98609.41;;;13.79;100.00
9905;BME280;4991;43.566;27.820;2023-04-16T05:08:55;98606.38;;;14.01;100.00
9905;BME280;4991;43.566;27.820;2023-04-16T05:11:21;98607.88;;;14.19;100.00
9905;BME280;4991;43.566;27.820;2023-04-16T05:13:47;98607.53;;;14.30;100.00
9905;BME280;4991;43.566;27.820;2023-04-16T05:16:13;98606.09;;;14.32;100.00
9905;BME280;4991;43.566;27.820;2023-04-16T05:18:38;98606.63;;;14.46;100.00
9905;BME280;4991;43.566;27.820;2023-04-16T05:21:04;98610.03;;;14.64;100.00
9905;BME280;4991;43.566;27.820;2023-04-16T05:23:30;98604.09;;;14.82;100.00
9905;BME280;4991;43.566;27.820;2023-04-16T05:25:55;98604.94;;;14.95;100.00
9905;BME280;4991;43.566;27.820;2023-04-16T05:28:21;98600.63;;;15.06;100.00
9905;BME280;4991;43.566;27.820;2023-04-16T05:30:46;98601.66;;;15.01;100.00
9905;BME280;4991;43.566;27.820;2023-04-16T05:33:13;98599.50;;;15.07;100.00
9905;BME280;4991;43.566;27.820;2023-04-16T05:35:38;98596.56;;;15.12;100.00
9905;BME280;4991;43.566;27.820;2023-04-16T05:38:04;98593.69;;;15.08;100.00
9905;BME280;4991;43.566;27.820;2023-04-16T05:40:30;98594.50;;;15.21;100.00
9905;BME280;4991;43.566;27.820;2023-04-16T05:42:56;98586.19;;;15.29;100.00
9905;BME280;4991;43.566;27.820;2023-04-16T05:45:22;98592.00;;;15.48;100.00
9905;BME280;4991;43.566;27.820;2023-04-16T05:47:47;98593.91;;;15.48;100.00
9905;BME280;4991;43.566;27.820;2023-04-16T05:50:13;98594.84;;;15.64;100.00
9905;BME280;4991;43.566;27.820;2023-04-16T05:52:38;98593.94;;;15.72;100.00
9905;BME280;4991;43.566;27.820;2023-04-16T05:55:04;98590.84;;;15.74;100.00
9905;BME280;4991;43.566;27.820;2023-04-16T05:57:32;98596.13;;;15.79;100.00
9905;BME280;4991;43.566;27.820;2023-04-16T05:59:57;98591.44;;;16.03;100.00
9905;BME280;4991;43.566;27.820;2023-04-16T06:02:23;98595.53;;;15.85;100.00
9905;BME280;4991;43.566;27.820;2023-04-16T06:04:49;98595.22;;;16.11;100.00
9905;BME280;4991;43.566;27.820;2023-04-16T06:07:14;98592.13;;;16.12;100.00
9905;BME280;4991;43.566;27.820;2023-04-16T06:09:41;98587.66;;;15.96;100.00
9905;BME280;4991;43.566;27.820;2023-04-16T06:12:06;98592.47;;;15.99;100.00
9905;BME280;4991;43.566;27.820;2023-04-16T06:14:32;98588.44;;;16.32;100.00
9905;BME280;4991;43.566;27.820;2023-04-16T06:16:58;98587.06;;;16.50;100.00
9905;BME280;4991;43.566;27.820;2023-04-16T06:19:24;98587.50;;;16.52;100.00
9905;BME280;4991;43.566;27.820;2023-04-16T06:21:50;98591.09;;;16.81;100.00
9905;BME280;4991;43.566;27.820;2023-04-16T06:24:15;98587.63;;;16.56;100.00
9905;BME280;4991;43.566;27.820;2023-04-16T06:26:43;98589.78;;;16.50;100.00
9905;BME280;4991;43.566;27.820;2023-04-16T06:29:08;98585.09;;;16.51;100.00
9905;BME280;4991;43.566;27.820;2023-04-16T06:31:34;98590.72;;;16.42;100.00
9905;BME280;4991;43.566;27.820;2023-04-16T06:33:59;98593.41;;;16.66;100.00
9905;BME280;4991;43.566;27.820;2023-04-16T06:36:25;98592.25;;;17.07;100.00
9905;BME280;4991;43.566;27.820;2023-04-16T06:38:52;98593.56;;;17.41;100.00
9905;BME280;4991;43.566;27.820;2023-04-16T06:41:17;98588.72;;;17.65;100.00
9905;BME280;4991;43.566;27.820;2023-04-16T06:43:44;98592.72;;;17.68;100.00
9905;BME280;4991;43.566;27.820;2023-04-16T06:46:10;98586.84;;;18.00;100.00
9905;BME280;4991;43.566;27.820;2023-04-16T06:48:36;98586.25;;;18.42;100.00
9905;BME280;4991;43.566;27.820;2023-04-16T06:51:01;98581.69;;;18.49;100.00
9905;BME280;4991;43.566;27.820;2023-04-16T06:53:27;98577.28;;;18.45;100.00
9905;BME280;4991;43.566;27.820;2023-04-16T06:55:53;98576.66;;;18.70;100.00
9905;BME280;4991;43.566;27.820;2023-04-16T06:58:18;98570.41;;;18.73;100.00
9905;BME280;4991;43.566;27.820;2023-04-16T07:00:46;98567.34;;;18.59;100.00
9905;BME280;4991;43.566;27.820;2023-04-16T07:03:12;98570.69;;;18.87;100.00
9905;BME280;4991;43.566;27.820;2023-04-16T07:05:37;98573.53;;;19.10;100.00
9905;BME280;4991;43.566;27.820;2023-04-16T07:08:04;98565.53;;;19.47;100.00
9905;BME280;4991;43.566;27.820;2023-04-16T07:10:30;98563.31;;;19.78;100.00
9905;BME280;4991;43.566;27.820;2023-04-16T07:12:55;98560.88;;;19.73;100.00
9905;BME280;4991;43.566;27.820;2023-04-16T07:15:21;98567.34;;;19.81;100.00
9905;BME280;4991;43.566;27.820;2023-04-16T07:17:47;98571.88;;;19.92;100.00
9905;BME280;4991;43.566;27.820;2023-04-16T07:20:12;98569.34;;;19.84;100.00
9905;BME280;4991;43.566;27.820;2023-04-16T07:22:38;98582.59;;;20.20;100.00
9905;BME280;4991;43.566;27.820;2023-04-16T07:25:04;98574.91;;;20.10;100.00
9905;BME280;4991;43.566;27.820;2023-04-16T07:27:30;98563.84;;;20.10;100.00
9905;BME280;4991;43.566;27.820;2023-04-16T07:29:56;98566.06;;;20.23;100.00
9905;BME280;4991;43.566;27.820;2023-04-16T07:32:22;98559.19;;;20.40;100.00
9905;BME280;4991;43.566;27.820;2023-04-16T07:34:49;98559.50;;;20.35;100.00
9905;BME280;4991;43.566;27.820;2023-04-16T07:37:14;98567.34;;;20.29;100.00
9905;BME280;4991;43.566;27.820;2023-04-16T07:39:40;98565.44;;;20.11;100.00
9905;BME280;4991;43.566;27.820;2023-04-16T07:42:06;98564.53;;;20.03;100.00
9905;BME280;4991;43.566;27.820;2023-04-16T07:44:32;98571.22;;;19.76;100.00
9905;BME280;4991;43.566;27.820;2023-04-16T07:46:57;98578.03;;;19.60;100.00
9905;BME280;4991;43.566;27.820;2023-04-16T07:49:23;98574.22;;;19.68;100.00
9905;BME280;4991;43.566;27.820;2023-04-16T07:51:49;98580.03;;;19.85;100.00
9905;BME280;4991;43.566;27.820;2023-04-16T07:54:14;98575.53;;;20.00;100.00
9905;BME280;4991;43.566;27.820;2023-04-16T07:56:41;98586.16;;;20.20;100.00
9905;BME280;4991;43.566;27.820;2023-04-16T07:59:06;98582.69;;;20.27;100.00
9905;BME280;4991;43.566;27.820;2023-04-16T08:01:32;98576.84;;;20.32;100.00
9905;BME280;4991;43.566;27.820;2023-04-16T08:03:58;98575.31;;;20.34;100.00
9905;BME280;4991;43.566;27.820;2023-04-16T08:06:23;98566.84;;;19.98;100.00
9905;BME280;4991;43.566;27.820;2023-04-16T08:08:50;98574.19;;;20.39;100.00
9905;BME280;4991;43.566;27.820;2023-04-16T08:11:16;98570.09;;;19.81;100.00
9905;BME280;4991;43.566;27.820;2023-04-16T08:13:42;98570.88;;;20.04;100.00
9905;BME280;4991;43.566;27.820;2023-04-16T08:16:07;98566.91;;;19.79;100.00
9905;BME280;4991;43.566;27.820;2023-04-16T08:18:33;98561.28;;;20.20;100.00
9905;BME280;4991;43.566;27.820;2023-04-16T08:20:58;98559.25;;;20.17;100.00
9905;BME280;4991;43.566;27.820;2023-04-16T08:23:24;98557.00;;;20.52;100.00
9905;BME280;4991;43.566;27.820;2023-04-16T08:25:50;98559.06;;;20.59;100.00
9905;BME280;4991;43.566;27.820;2023-04-16T08:28:15;98557.75;;;21.09;100.00
9905;BME280;4991;43.566;27.820;2023-04-16T08:30:41;98551.34;;;21.41;100.00
9905;BME280;4991;43.566;27.820;2023-04-16T08:33:07;98556.53;;;21.46;100.00
9905;BME280;4991;43.566;27.820;2023-04-16T08:35:33;98542.91;;;21.27;100.00
9905;BME280;4991;43.566;27.820;2023-04-16T08:37:58;98536.19;;;21.68;100.00
9905;BME280;4991;43.566;27.820;2023-04-16T08:40:27;98540.56;;;21.73;100.00
9905;BME280;4991;43.566;27.820;2023-04-16T08:42:55;98544.69;;;21.49;100.00
9905;BME280;4991;43.566;27.820;2023-04-16T08:45:25;98548.34;;;22.04;100.00
9905;BME280;4991;43.566;27.820;2023-04-16T08:47:51;98547.38;;;21.79;100.00
9905;BME280;4991;43.566;27.820;2023-04-16T08:50:24;98539.09;;;22.37;100.00
9905;BME280;4991;43.566;27.820;2023-04-16T08:52:52;98529.28;;;22.57;100.00
9905;BME280;4991;43.566;27.820;2023-04-16T08:55:21;98549.81;;;22.45;100.00
9905;BME280;4991;43.566;27.820;2023-04-16T08:57:57;98535.34;;;22.83;100.00
9905;BME280;4991;43.566;27.820;2023-04-16T09:00:23;98529.78;;;22.76;100.00
9905;BME280;4991;43.566;27.820;2023-04-16T09:02:49;98527.53;;;22.31;100.00
9905;BME280;4991;43.566;27.820;2023-04-16T09:05:16;98518.91;;;22.43;100.00
9905;BME280;4991;43.566;27.820;2023-04-16T09:07:45;98518.53;;;22.52;100.00
9905;BME280;4991;43.566;27.820;2023-04-16T09:10:12;98525.72;;;21.51;100.00
9905;BME280;4991;43.566;27.820;2023-04-16T09:12:40;98519.13;;;21.26;100.00
9905;BME280;4991;43.566;27.820;2023-04-16T09:15:09;98511.09;;;21.98;100.00
9905;BME280;4991;43.566;27.820;2023-04-16T09:17:35;98501.69;;;22.13;100.00
9905;BME280;4991;43.566;27.820;2023-04-16T09:20:02;98506.81;;;22.11;100.00
9905;BME280;4991;43.566;27.820;2023-04-16T09:22:30;98497.22;;;21.98;100.00
9905;BME280;4991;43.566;27.820;2023-04-16T09:24:56;98497.72;;;22.14;100.00
9905;BME280;4991;43.566;27.820;2023-04-16T09:27:24;98499.28;;;22.12;100.00
9905;BME280;4991;43.566;27.820;2023-04-16T09:29:51;98487.03;;;22.16;100.00
9905;BME280;4991;43.566;27.820;2023-04-16T09:32:23;98484.97;;;22.85;100.00
9905;BME280;4991;43.566;27.820;2023-04-16T09:35:00;98479.91;;;23.22;100.00
9905;BME280;4991;43.566;27.820;2023-04-16T09:37:29;98476.25;;;22.90;100.00
9905;BME280;4991;43.566;27.820;2023-04-16T09:40:02;98470.25;;;22.70;100.00
9905;BME280;4991;43.566;27.820;2023-04-16T09:42:31;98462.88;;;23.97;100.00
9905;BME280;4991;43.566;27.820;2023-04-16T09:44:57;98470.28;;;25.29;100.00
9905;BME280;4991;43.566;27.820;2023-04-16T09:47:43;98459.56;;;27.17;100.00
9905;BME280;4991;43.566;27.820;2023-04-16T09:50:13;98445.91;;;27.22;100.00
9905;BME280;4991;43.566;27.820;2023-04-16T09:52:39;98454.34;;;26.92;94.81
9905;BME280;4991;43.566;27.820;2023-04-16T09:55:07;98443.28;;;27.12;94.41
9905;BME280;4991;43.566;27.820;2023-04-16T09:57:36;98446.44;;;27.90;88.05
9905;BME280;4991;43.566;27.820;2023-04-16T10:00:04;98447.81;;;29.19;81.45
9905;BME280;4991;43.566;27.820;2023-04-16T10:02:31;98443.09;;;29.16;77.23
9905;BME280;4991;43.566;27.820;2023-04-16T10:05:00;98439.28;;;29.74;71.30
9905;BME280;4991;43.566;27.820;2023-04-16T10:07:35;98429.00;;;28.64;72.22
9905;BME280;4991;43.566;27.820;2023-04-16T10:10:02;98436.69;;;29.16;69.01
9905;BME280;4991;43.566;27.820;2023-04-16T10:12:29;98438.25;;;28.81;68.25
9905;BME280;4991;43.566;27.820;2023-04-16T10:14:55;98424.25;;;27.76;71.40
9905;BME280;4991;43.566;27.820;2023-04-16T10:17:21;98432.16;;;28.04;73.28
9905;BME280;4991;43.566;27.820;2023-04-16T10:19:49;98422.66;;;28.21;68.43
9905;BME280;4991;43.566;27.820;2023-04-16T10:22:15;98429.16;;;28.77;65.30
9905;BME280;4991;43.566;27.820;2023-04-16T10:24:41;98426.09;;;29.23;60.77
9905;BME280;4991;43.566;27.820;2023-04-16T10:27:07;98425.50;;;29.80;58.30
9905;BME280;4991;43.566;27.820;2023-04-16T10:29:33;98421.03;;;30.27;54.26
9905;BME280;4991;43.566;27.820;2023-04-16T10:31:59;98433.38;;;29.21;54.45
9905;BME280;4991;43.566;27.820;2023-04-16T10:34:25;98427.66;;;28.53;57.03
9905;BME280;4991;43.566;27.820;2023-04-16T10:36:53;98427.31;;;28.08;56.70
9905;BME280;4991;43.566;27.820;2023-04-16T10:39:24;98419.28;;;27.64;57.04
9905;BME280;4991;43.566;27.820;2023-04-16T10:42:06;98433.84;;;28.99;54.34
9905;BME280;4991;43.566;27.820;2023-04-16T10:44:32;98433.56;;;29.30;54.58
9905;BME280;4991;43.566;27.820;2023-04-16T10:46:58;98431.28;;;28.69;54.76
9905;BME280;4991;43.566;27.820;2023-04-16T10:49:24;98419.16;;;28.56;53.97
9905;BME280;4991;43.566;27.820;2023-04-16T10:52:07;98422.09;;;29.04;49.98
9905;BME280;4991;43.566;27.820;2023-04-16T10:54:37;98406.91;;;29.86;49.52
9905;BME280;4991;43.566;27.820;2023-04-16T10:57:04;98406.78;;;30.63;47.56
9905;BME280;4991;43.566;27.820;2023-04-16T10:59:32;98412.00;;;30.19;46.44
9905;BME280;4991;43.566;27.820;2023-04-16T11:02:16;98414.56;;;28.27;49.29
9905;BME280;4991;43.566;27.820;2023-04-16T11:04:47;98406.03;;;29.25;50.02
9905;BME280;4991;43.566;27.820;2023-04-16T11:07:16;98397.16;;;30.19;46.82
9905;BME280;4991;43.566;27.820;2023-04-16T11:12:41;98396.22;;;30.25;47.07
9905;BME280;4991;43.566;27.820;2023-04-16T11:15:14;98403.06;;;29.32;49.19
9905;BME280;4991;43.566;27.820;2023-04-16T11:17:50;98401.03;;;29.64;49.06
9905;BME280;4991;43.566;27.820;2023-04-16T11:20:24;98388.47;;;31.21;46.63
9905;BME280;4991;43.566;27.820;2023-04-16T11:22:51;98379.72;;;30.94;46.87
9905;BME280;4991;43.566;27.820;2023-04-16T11:25:21;98387.69;;;29.52;49.46
9905;BME280;4991;43.566;27.820;2023-04-16T11:27:47;98382.91;;;27.87;52.72
9905;BME280;4991;43.566;27.820;2023-04-16T11:30:14;98384.38;;;26.99;58.29
9905;BME280;4991;43.566;27.820;2023-04-16T11:32:40;98393.13;;;25.70;64.50
9905;BME280;4991;43.566;27.820;2023-04-16T11:35:17;98400.84;;;25.93;69.94
9905;BME280;4991;43.566;27.820;2023-04-16T11:37:44;98402.13;;;26.86;68.00
9905;BME280;4991;43.566;27.820;2023-04-16T11:40:11;98403.91;;;27.29;66.33
9905;BME280;4991;43.566;27.820;2023-04-16T11:42:38;98401.50;;;27.28;67.27
9905;BME280;4991;43.566;27.820;2023-04-16T11:45:09;98403.53;;;28.16;64.40
9905;BME280;4991;43.566;27.820;2023-04-16T11:47:46;98392.13;;;28.07;64.72
9905;BME280;4991;43.566;27.820;2023-04-16T11:50:27;98387.88;;;29.45;62.74
9905;BME280;4991;43.566;27.820;2023-04-16T11:53:02;98383.06;;;30.22;59.55
9905;BME280;4991;43.566;27.820;2023-04-16T11:55:28;98379.81;;;30.78;57.15
9905;BME280;4991;43.566;27.820;2023-04-16T11:57:54;98381.16;;;28.55;59.08
9905;BME280;4991;43.566;27.820;2023-04-16T12:00:20;98375.94;;;29.73;54.63
9905;BME280;4991;43.566;27.820;2023-04-16T12:02:52;98383.72;;;29.01;55.28
9905;BME280;4991;43.566;27.820;2023-04-16T12:07:54;98386.56;;;29.34;56.48
9905;BME280;4991;43.566;27.820;2023-04-16T12:10:20;98377.34;;;30.10;56.75
9905;BME280;4991;43.566;27.820;2023-04-16T12:12:45;98384.75;;;28.91;59.28
9905;BME280;4991;43.566;27.820;2023-04-16T12:15:11;98381.28;;;28.48;62.45
9905;BME280;4991;43.566;27.820;2023-04-16T12:17:37;98383.31;;;29.35;60.66
9905;BME280;4991;43.566;27.820;2023-04-16T12:20:13;98378.75;;;29.73;61.72
9905;BME280;4991;43.566;27.820;2023-04-16T12:22:46;98370.78;;;30.70;60.26
9905;BME280;4991;43.566;27.820;2023-04-16T12:25:16;98376.03;;;30.84;58.04
9905;BME280;4991;43.566;27.820;2023-04-16T12:27:52;98375.84;;;30.63;59.62
9905;BME280;4991;43.566;27.820;2023-04-16T12:30:21;98368.81;;;31.08;58.24
9905;BME280;4991;43.566;27.820;2023-04-16T12:32:49;98380.06;;;30.13;59.64
9905;BME280;4991;43.566;27.820;2023-04-16T12:35:32;98382.91;;;29.37;63.47
9905;BME280;4991;43.566;27.820;2023-04-16T12:37:58;98387.66;;;27.67;72.08
9905;BME280;4991;43.566;27.820;2023-04-16T12:40:24;98384.88;;;27.17;78.13
9905;BME280;4991;43.566;27.820;2023-04-16T12:42:49;98392.50;;;26.56;85.27
9905;BME280;4991;43.566;27.820;2023-04-16T12:45:15;98398.88;;;25.49;97.68
9905;BME280;4991;43.566;27.820;2023-04-16T12:47:41;98397.50;;;25.68;99.65
9905;BME280;4991;43.566;27.820;2023-04-16T12:50:07;98402.56;;;25.83;99.63
9905;BME280;4991;43.566;27.820;2023-04-16T12:52:33;98399.06;;;26.13;95.33
9905;BME280;4991;43.566;27.820;2023-04-16T12:55:00;98417.53;;;25.56;100.00
9905;BME280;4991;43.566;27.820;2023-04-16T12:57:26;98413.19;;;24.10;100.00
9905;BME280;4991;43.566;27.820;2023-04-16T12:59:56;98412.47;;;23.60;100.00
9905;BME280;4991;43.566;27.820;2023-04-16T13:02:22;98423.22;;;23.48;100.00
9905;BME280;4991;43.566;27.820;2023-04-16T13:04:49;98418.72;;;22.73;100.00
9905;BME280;4991;43.566;27.820;2023-04-16T13:07:15;98414.91;;;22.13;100.00